createdAt,value
2023-04-01T00:00:36.586Z,26.55
2023-04-01T00:01:36.661Z,26.55
2023-04-01T00:02:36.766Z,26.55
2023-04-01T00:03:36.751Z,26.59
2023-04-01T00:04:36.737Z,26.58
2023-04-01T00:05:36.745Z,26.56
2023-04-01T00:06:36.802Z,26.58
2023-04-01T00:07:36.819Z,26.59
2023-04-01T00:08:36.854Z,26.56
2023-04-01T00:09:36.907Z,26.58
2023-04-01T00:10:36.969Z,26.58
2023-04-01T00:11:37.001Z,26.58
2023-04-01T00:12:37.033Z,26.58
2023-04-01T00:13:37.049Z,26.61
2023-04-01T00:14:37.088Z,26.58
2023-04-01T00:15:37.099Z,26.56
2023-04-01T00:16:37.172Z,26.58
2023-04-01T00:17:37.201Z,26.55
2023-04-01T00:18:37.250Z,26.56
2023-04-01T00:19:37.259Z,26.56
2023-04-01T00:20:37.319Z,26.56
2023-04-01T00:21:37.348Z,26.55
2023-04-01T00:22:37.473Z,26.56
2023-04-01T00:23:37.414Z,26.55
2023-04-01T00:24:37.436Z,26.56
2023-04-01T00:25:37.475Z,26.56
2023-04-01T00:26:37.525Z,26.56
2023-04-01T00:27:37.575Z,26.55
2023-04-01T00:28:37.597Z,26.56
2023-04-01T00:29:37.635Z,26.56
2023-04-01T00:30:37.637Z,26.56
2023-04-01T00:31:37.738Z,26.55
2023-04-01T00:32:37.686Z,26.55
2023-04-01T00:33:37.774Z,26.55
2023-04-01T00:34:37.765Z,26.56
2023-04-01T00:35:37.808Z,26.54
2023-04-01T00:36:37.907Z,26.55
2023-04-01T00:37:37.867Z,26.52
2023-04-01T00:38:37.927Z,26.54
2023-04-01T00:39:37.983Z,26.56
2023-04-01T00:40:38.010Z,26.56
2023-04-01T00:41:38.045Z,26.55
2023-04-01T00:42:38.107Z,26.54
2023-04-01T00:43:38.141Z,26.56
2023-04-01T00:44:38.189Z,26.52
2023-04-01T00:45:38.208Z,26.54
2023-04-01T00:46:38.276Z,26.52
2023-04-01T00:47:38.328Z,26.55
2023-04-01T00:48:38.325Z,26.54
2023-04-01T00:49:38.382Z,26.54
2023-04-01T00:50:38.397Z,26.54
2023-04-01T00:51:38.429Z,26.52
2023-04-01T00:52:38.430Z,26.54
2023-04-01T00:53:38.510Z,26.52
2023-04-01T00:54:38.497Z,26.52
2023-04-01T00:55:38.507Z,26.52
2023-04-01T00:56:38.550Z,26.54
2023-04-01T00:57:38.571Z,26.54
2023-04-01T00:58:38.581Z,26.52
2023-04-01T00:59:38.607Z,26.54
2023-04-01T01:00:38.670Z,26.54
2023-04-01T01:01:38.684Z,26.52
2023-04-01T01:02:38.798Z,26.54
2023-04-01T01:03:38.754Z,26.54
2023-04-01T01:04:38.796Z,26.54
2023-04-01T01:05:48.526Z,26.54
2023-04-01T01:06:39.817Z,26.54
2023-04-01T01:07:38.789Z,26.54
2023-04-01T01:08:38.802Z,26.55
2023-04-01T01:09:38.790Z,26.52
2023-04-01T01:10:38.768Z,26.54
2023-04-01T01:11:43.592Z,26.51
2023-04-01T01:12:39.759Z,26.49
2023-04-01T01:13:38.775Z,26.52
2023-04-01T01:14:38.753Z,26.54
2023-04-01T01:15:38.727Z,26.52
2023-04-01T01:16:38.757Z,26.54
2023-04-01T01:17:38.768Z,26.54
2023-04-01T01:18:38.699Z,26.52
2023-04-01T01:19:38.732Z,26.54
2023-04-01T01:20:38.703Z,26.52
2023-04-01T01:21:38.678Z,26.52
2023-04-01T01:22:38.721Z,26.54
2023-04-01T01:23:38.683Z,26.52
2023-04-01T01:24:38.669Z,26.52
2023-04-01T01:25:38.719Z,26.52
2023-04-01T01:26:38.776Z,26.51
2023-04-01T01:27:38.769Z,26.52
2023-04-01T01:28:38.813Z,26.52
2023-04-01T01:29:38.849Z,26.54
2023-04-01T01:30:38.906Z,26.51
2023-04-01T01:31:38.937Z,26.52
2023-04-01T01:32:39.001Z,26.51
2023-04-01T01:33:39.002Z,26.52
2023-04-01T01:34:39.052Z,26.55
2023-04-01T01:35:39.109Z,26.52
2023-04-01T01:36:39.122Z,26.52
2023-04-01T01:37:39.140Z,26.51
2023-04-01T01:38:39.195Z,26.55
2023-04-01T01:39:39.245Z,26.55
2023-04-01T01:40:39.276Z,26.54
2023-04-01T01:41:39.318Z,26.54
2023-04-01T01:42:39.350Z,26.52
2023-04-01T01:43:39.381Z,26.49
2023-04-01T01:44:39.423Z,26.51
2023-04-01T01:45:39.463Z,26.52
2023-04-01T01:46:39.534Z,26.54
2023-04-01T01:47:39.541Z,26.52
2023-04-01T01:48:39.567Z,26.55
2023-04-01T01:49:39.580Z,26.55
2023-04-01T01:50:39.612Z,26.52
2023-04-01T01:51:39.630Z,26.51
2023-04-01T01:52:39.707Z,26.54
2023-04-01T01:53:39.708Z,26.52
2023-04-01T01:54:39.802Z,26.52
2023-04-01T01:55:39.823Z,26.54
2023-04-01T01:56:39.847Z,26.52
2023-04-01T01:57:39.905Z,26.54
2023-04-01T01:58:39.926Z,26.52
2023-04-01T01:59:40.015Z,26.55
2023-04-01T02:00:39.998Z,26.52
2023-04-01T02:01:40.094Z,26.54
2023-04-01T02:02:40.119Z,26.54
2023-04-01T02:03:40.118Z,26.51
2023-04-01T02:04:40.204Z,26.52
2023-04-01T02:05:40.181Z,26.51
2023-04-01T02:06:40.225Z,26.51
2023-04-01T02:07:40.251Z,26.52
2023-04-01T02:08:40.320Z,26.51
2023-04-01T02:09:40.338Z,26.51
2023-04-01T02:10:40.389Z,26.51
2023-04-01T02:11:40.421Z,26.51
2023-04-01T02:12:40.458Z,26.54
2023-04-01T02:13:40.441Z,26.52
2023-04-01T02:14:40.496Z,26.52
2023-04-01T02:15:40.542Z,26.54
2023-04-01T02:16:40.547Z,26.51
2023-04-01T02:17:40.613Z,26.52
2023-04-01T02:18:40.632Z,26.52
2023-04-01T02:19:40.747Z,26.52
2023-04-01T02:20:40.720Z,26.52
2023-04-01T02:21:40.723Z,26.51
2023-04-01T02:22:40.776Z,26.52
2023-04-01T02:23:40.791Z,26.51
2023-04-01T02:24:40.839Z,26.51
2023-04-01T02:25:40.891Z,26.51
2023-04-01T02:26:40.917Z,26.52
2023-04-01T02:27:40.939Z,26.52
2023-04-01T02:28:40.957Z,26.54
2023-04-01T02:29:41.011Z,26.51
2023-04-01T02:30:41.083Z,26.51
2023-04-01T02:31:41.130Z,26.51
2023-04-01T02:32:41.201Z,26.52
2023-04-01T02:33:41.154Z,26.54
2023-04-01T02:34:41.189Z,26.52
2023-04-01T02:35:41.335Z,26.51
2023-04-01T02:36:41.274Z,26.49
2023-04-01T02:37:41.328Z,26.52
2023-04-01T02:38:41.371Z,26.51
2023-04-01T02:39:41.403Z,26.51
2023-04-01T02:40:41.475Z,26.51
2023-04-01T02:41:41.496Z,26.51
2023-04-01T02:42:41.543Z,26.49
2023-04-01T02:43:42.563Z,26.51
2023-04-01T02:44:41.626Z,26.51
2023-04-01T02:45:41.657Z,26.51
2023-04-01T02:46:41.841Z,26.52
2023-04-01T02:47:41.755Z,26.51
2023-04-01T02:48:41.717Z,26.51
2023-04-01T02:49:41.747Z,26.52
2023-04-01T02:50:41.799Z,26.48
2023-04-01T02:51:41.844Z,26.49
2023-04-01T02:52:41.884Z,26.51
2023-04-01T02:53:41.944Z,26.49
2023-04-01T02:54:41.957Z,26.49
2023-04-01T02:55:41.958Z,26.52
2023-04-01T02:56:42.007Z,26.48
2023-04-01T02:57:42.046Z,26.52
2023-04-01T02:58:42.094Z,26.48
2023-04-01T02:59:42.132Z,26.51
2023-04-01T03:00:42.205Z,26.54
2023-04-01T03:01:42.206Z,26.51
2023-04-01T03:02:42.330Z,26.52
2023-04-01T03:03:42.299Z,26.48
2023-04-01T03:04:42.340Z,26.49
2023-04-01T03:05:42.380Z,26.49
2023-04-01T03:06:42.397Z,26.51
2023-04-01T03:07:42.464Z,26.49
2023-04-01T03:08:42.519Z,26.51
2023-04-01T03:09:42.551Z,26.48
2023-04-01T03:10:42.585Z,26.49
2023-04-01T03:11:42.656Z,26.49
2023-04-01T03:12:42.660Z,26.51
2023-04-01T03:13:42.681Z,26.49
2023-04-01T03:14:42.693Z,26.51
2023-04-01T03:15:42.726Z,26.49
2023-04-01T03:16:42.786Z,26.51
2023-04-01T03:17:42.887Z,26.51
2023-04-01T03:18:42.858Z,26.51
2023-04-01T03:19:42.898Z,26.52
2023-04-01T03:20:42.882Z,26.49
2023-04-01T03:21:42.915Z,26.51
2023-04-01T03:22:43.249Z,26.51
2023-04-01T03:23:42.959Z,26.51
2023-04-01T03:24:42.983Z,26.49
2023-04-01T03:25:43.013Z,26.51
2023-04-01T03:26:43.065Z,26.51
2023-04-01T03:27:43.060Z,26.52
2023-04-01T03:28:43.077Z,26.49
2023-04-01T03:29:43.179Z,26.49
2023-04-01T03:30:43.170Z,26.49
2023-04-01T03:31:43.185Z,26.51
2023-04-01T03:32:43.227Z,26.51
2023-04-01T03:33:43.230Z,26.51
2023-04-01T03:34:43.286Z,26.51
2023-04-01T03:35:43.318Z,26.49
2023-04-01T03:36:43.382Z,26.49
2023-04-01T03:37:43.426Z,26.48
2023-04-01T03:38:43.527Z,26.49
2023-04-01T03:39:44.531Z,26.49
2023-04-01T03:40:43.575Z,26.48
2023-04-01T03:41:43.590Z,26.48
2023-04-01T03:42:43.702Z,26.51
2023-04-01T03:43:43.678Z,26.49
2023-04-01T03:44:43.746Z,26.51
2023-04-01T03:45:43.774Z,26.49
2023-04-01T03:46:43.842Z,26.49
2023-04-01T03:47:43.900Z,26.51
2023-04-01T03:48:43.922Z,26.48
2023-04-01T03:49:43.956Z,26.49
2023-04-01T03:50:43.998Z,26.49
2023-04-01T03:51:44.044Z,26.47
2023-04-01T03:52:44.045Z,26.51
2023-04-01T03:53:44.102Z,26.51
2023-04-01T03:54:44.144Z,26.49
2023-04-01T03:55:44.148Z,26.51
2023-04-01T03:56:44.183Z,26.49
2023-04-01T03:57:44.233Z,26.47
2023-04-01T03:58:44.260Z,26.51
2023-04-01T03:59:44.584Z,26.49
2023-04-01T04:00:44.374Z,26.48
2023-04-01T04:01:44.412Z,26.49
2023-04-01T04:02:44.476Z,26.49
2023-04-01T04:03:44.556Z,26.48
2023-04-01T04:04:44.626Z,26.49
2023-04-01T04:05:44.553Z,26.48
2023-04-01T04:06:44.590Z,26.48
2023-04-01T04:07:44.664Z,26.49
2023-04-01T04:08:44.682Z,26.48
2023-04-01T04:09:44.735Z,26.49
2023-04-01T04:10:44.796Z,26.48
2023-04-01T04:11:44.837Z,26.47
2023-04-01T04:12:44.902Z,26.48
2023-04-01T04:13:44.936Z,26.48
2023-04-01T04:14:44.964Z,26.49
2023-04-01T04:15:45.020Z,26.48
2023-04-01T04:16:45.053Z,26.48
2023-04-01T04:17:45.131Z,26.45
2023-04-01T04:18:45.185Z,26.48
2023-04-01T04:19:45.221Z,26.48
2023-04-01T04:20:45.289Z,26.48
2023-04-01T04:21:45.288Z,26.49
2023-04-01T04:22:45.338Z,26.48
2023-04-01T04:23:45.361Z,26.47
2023-04-01T04:24:45.389Z,26.49
2023-04-01T04:25:45.449Z,26.51
2023-04-01T04:26:45.476Z,26.47
2023-04-01T04:27:45.500Z,26.47
2023-04-01T04:28:45.541Z,26.48
2023-04-01T04:29:45.594Z,26.48
2023-04-01T04:30:45.637Z,26.48
2023-04-01T04:31:45.665Z,26.49
2023-04-01T04:32:45.762Z,26.48
2023-04-01T04:33:45.722Z,26.48
2023-04-01T04:34:45.759Z,26.51
2023-04-01T04:35:45.804Z,26.48
2023-04-01T04:36:45.792Z,26.48
2023-04-01T04:37:45.836Z,26.49
2023-04-01T04:38:45.875Z,26.48
2023-04-01T04:39:45.892Z,26.47
2023-04-01T04:40:45.935Z,26.47
2023-04-01T04:41:45.969Z,26.47
2023-04-01T04:42:46.032Z,26.48
2023-04-01T04:43:46.060Z,26.49
2023-04-01T04:44:46.105Z,26.48
2023-04-01T04:45:46.123Z,26.47
2023-04-01T04:46:46.207Z,26.49
2023-04-01T04:47:46.199Z,26.48
2023-04-01T04:48:46.188Z,26.48
2023-04-01T04:49:46.205Z,26.47
2023-04-01T04:50:46.239Z,26.47
2023-04-01T04:51:46.344Z,26.49
2023-04-01T04:52:46.306Z,26.48
2023-04-01T04:53:46.358Z,26.49
2023-04-01T04:54:46.373Z,26.48
2023-04-01T04:55:46.423Z,26.48
2023-04-01T04:56:46.563Z,26.48
2023-04-01T04:57:46.504Z,26.47
2023-04-01T04:58:46.523Z,26.47
2023-04-01T04:59:46.600Z,26.48
2023-04-01T05:00:46.644Z,26.47
2023-04-01T05:01:46.816Z,26.49
2023-04-01T05:02:46.832Z,26.48
2023-04-01T05:03:46.747Z,26.48
2023-04-01T05:04:46.772Z,26.47
2023-04-01T05:05:46.789Z,26.49
2023-04-01T05:06:46.843Z,26.48
2023-04-01T05:07:46.896Z,26.51
2023-04-01T05:08:46.915Z,26.48
2023-04-01T05:09:46.954Z,26.49
2023-04-01T05:10:46.978Z,26.48
2023-04-01T05:11:47.039Z,26.48
2023-04-01T05:12:47.078Z,26.49
2023-04-01T05:13:47.242Z,26.48
2023-04-01T05:14:47.146Z,26.48
2023-04-01T05:15:47.197Z,26.51
2023-04-01T05:16:47.299Z,26.48
2023-04-01T05:17:47.337Z,26.48
2023-04-01T05:18:47.308Z,26.48
2023-04-01T05:19:47.337Z,26.49
2023-04-01T05:20:47.365Z,26.48
2023-04-01T05:21:47.438Z,26.51
2023-04-01T05:22:47.464Z,26.51
2023-04-01T05:23:47.500Z,26.49
2023-04-01T05:24:47.531Z,26.51
2023-04-01T05:25:47.544Z,26.51
2023-04-01T05:26:47.602Z,26.51
2023-04-01T05:27:47.640Z,26.52
2023-04-01T05:28:47.682Z,26.49
2023-04-01T05:29:47.717Z,26.51
2023-04-01T05:30:47.801Z,26.52
2023-04-01T05:31:47.806Z,26.51
2023-04-01T05:32:47.876Z,26.52
2023-04-01T05:33:47.867Z,26.54
2023-04-01T05:34:47.897Z,26.51
2023-04-01T05:35:47.959Z,26.55
2023-04-01T05:36:47.961Z,26.54
2023-04-01T05:37:48.006Z,26.54
2023-04-01T05:38:48.052Z,26.55
2023-04-01T05:39:48.068Z,26.54
2023-04-01T05:40:48.091Z,26.56
2023-04-01T05:41:48.111Z,26.56
2023-04-01T05:42:48.150Z,26.56
2023-04-01T05:43:48.174Z,26.58
2023-04-01T05:44:48.222Z,26.59
2023-04-01T05:45:48.274Z,26.56
2023-04-01T05:46:48.291Z,26.56
2023-04-01T05:47:48.353Z,26.59
2023-04-01T05:48:48.366Z,26.56
2023-04-01T05:49:48.389Z,26.58
2023-04-01T05:50:48.402Z,26.61
2023-04-01T05:51:48.460Z,26.58
2023-04-01T05:52:48.493Z,26.59
2023-04-01T05:53:48.535Z,26.62
2023-04-01T05:54:48.570Z,26.59
2023-04-01T05:55:48.609Z,26.59
2023-04-01T05:56:48.925Z,26.61
2023-04-01T05:57:48.670Z,26.61
2023-04-01T05:58:48.703Z,26.61
2023-04-01T05:59:48.751Z,26.61
2023-04-01T06:00:53.715Z,26.62
2023-04-01T06:01:49.789Z,26.61
2023-04-01T06:02:48.855Z,26.61
2023-04-01T06:03:49.055Z,26.63
2023-04-01T06:04:48.825Z,26.62
2023-04-01T06:05:48.754Z,26.62
2023-04-01T06:06:48.751Z,26.62
2023-04-01T06:07:48.734Z,26.65
2023-04-01T06:08:48.739Z,26.65
2023-04-01T06:09:48.733Z,26.63
2023-04-01T06:10:48.719Z,26.63
2023-04-01T06:11:48.719Z,26.65
2023-04-01T06:12:48.704Z,26.67
2023-04-01T06:13:48.699Z,26.63
2023-04-01T06:14:48.685Z,26.67
2023-04-01T06:15:48.728Z,26.65
2023-04-01T06:16:48.753Z,26.65
2023-04-01T06:17:48.833Z,26.65
2023-04-01T06:18:48.812Z,26.67
2023-04-01T06:19:48.875Z,26.68
2023-04-01T06:20:48.888Z,26.68
2023-04-01T06:21:48.984Z,26.67
2023-04-01T06:22:49.025Z,26.69
2023-04-01T06:23:49.022Z,26.69
2023-04-01T06:24:49.006Z,26.69
2023-04-01T06:25:49.040Z,26.68
2023-04-01T06:26:49.102Z,26.68
2023-04-01T06:27:49.137Z,26.69
2023-04-01T06:28:49.162Z,26.69
2023-04-01T06:29:49.178Z,26.71
2023-04-01T06:30:49.180Z,26.71
2023-04-01T06:31:49.257Z,26.74
2023-04-01T06:32:49.313Z,26.75
2023-04-01T06:33:49.281Z,26.74
2023-04-01T06:34:49.298Z,26.78
2023-04-01T06:35:49.445Z,26.75
2023-04-01T06:36:49.402Z,26.78
2023-04-01T06:37:49.413Z,26.79
2023-04-01T06:38:49.463Z,26.81
2023-04-01T06:39:49.484Z,26.81
2023-04-01T06:40:49.507Z,26.83
2023-04-01T06:41:49.558Z,26.82
2023-04-01T06:42:49.572Z,26.85
2023-04-01T06:43:49.614Z,26.86
2023-04-01T06:44:49.660Z,26.86
2023-04-01T06:45:49.643Z,26.89
2023-04-01T06:46:49.672Z,26.89
2023-04-01T06:47:49.709Z,26.89
2023-04-01T06:48:49.717Z,26.90
2023-04-01T06:49:49.755Z,26.90
2023-04-01T06:50:49.815Z,26.90
2023-04-01T06:51:49.862Z,26.92
2023-04-01T06:52:49.872Z,26.95
2023-04-01T06:53:49.910Z,26.96
2023-04-01T06:54:49.901Z,26.98
2023-04-01T06:55:49.946Z,27.02
2023-04-01T06:56:49.975Z,27.02
2023-04-01T06:57:49.981Z,27.03
2023-04-01T06:58:49.982Z,27.05
2023-04-01T06:59:50.000Z,27.03
2023-04-01T07:00:50.090Z,27.06
2023-04-01T07:01:50.073Z,27.11
2023-04-01T07:02:50.048Z,27.14
2023-04-01T07:03:50.055Z,27.16
2023-04-01T07:04:50.125Z,27.20
2023-04-01T07:05:50.185Z,27.22
2023-04-01T07:06:50.186Z,27.27
2023-04-01T07:07:50.270Z,27.30
2023-04-01T07:08:50.287Z,27.30
2023-04-01T07:09:50.311Z,27.32
2023-04-01T07:10:50.308Z,27.37
2023-04-01T07:11:50.326Z,27.40
2023-04-01T07:12:50.390Z,27.40
2023-04-01T07:13:50.413Z,27.46
2023-04-01T07:14:50.437Z,27.47
2023-04-01T07:15:50.449Z,27.51
2023-04-01T07:16:50.505Z,27.51
2023-04-01T07:17:50.598Z,27.53
2023-04-01T07:18:50.602Z,27.58
2023-04-01T07:19:50.609Z,27.58
2023-04-01T07:20:50.625Z,27.61
2023-04-01T07:21:50.640Z,27.62
2023-04-01T07:22:50.680Z,27.65
2023-04-01T07:23:50.660Z,27.67
2023-04-01T07:24:50.722Z,27.65
2023-04-01T07:25:50.757Z,27.68
2023-04-01T07:26:50.804Z,27.70
2023-04-01T07:27:50.861Z,27.68
2023-04-01T07:28:50.952Z,27.72
2023-04-01T07:29:50.960Z,27.71
2023-04-01T07:30:51.018Z,27.71
2023-04-01T07:31:51.060Z,27.74
2023-04-01T07:32:51.131Z,27.74
2023-04-01T07:33:51.212Z,27.72
2023-04-01T07:34:51.178Z,27.72
2023-04-01T07:35:51.211Z,27.72
2023-04-01T07:36:51.202Z,27.72
2023-04-01T07:37:51.228Z,27.74
2023-04-01T07:38:51.271Z,27.77
2023-04-01T07:39:51.282Z,27.72
2023-04-01T07:40:51.297Z,27.74
2023-04-01T07:41:51.302Z,27.72
2023-04-01T07:42:51.364Z,27.72
2023-04-01T07:43:51.354Z,27.70
2023-04-01T07:44:51.368Z,27.72
2023-04-01T07:45:51.424Z,27.72
2023-04-01T07:46:51.439Z,27.72
2023-04-01T07:47:51.450Z,27.71
2023-04-01T07:48:51.422Z,27.72
2023-04-01T07:49:51.475Z,27.74
2023-04-01T07:50:53.141Z,27.77
2023-04-01T07:51:51.529Z,27.77
2023-04-01T07:52:51.556Z,27.78
2023-04-01T07:53:51.602Z,27.83
2023-04-01T07:54:51.645Z,27.87
2023-04-01T07:55:51.666Z,27.88
2023-04-01T07:56:51.710Z,27.91
2023-04-01T07:57:51.707Z,27.97
2023-04-01T07:58:51.720Z,28.04
2023-04-01T07:59:51.756Z,28.05
2023-04-01T08:00:51.765Z,28.11
2023-04-01T08:01:51.782Z,28.08
2023-04-01T08:02:51.914Z,28.15
2023-04-01T08:03:52.100Z,28.18
2023-04-01T08:04:51.985Z,28.25
2023-04-01T08:05:51.915Z,28.30
2023-04-01T08:06:51.928Z,28.34
2023-04-01T08:07:51.977Z,28.30
2023-04-01T08:08:52.047Z,28.40
2023-04-01T08:09:52.061Z,28.39
2023-04-01T08:10:52.100Z,28.46
2023-04-01T08:11:52.101Z,28.42
2023-04-01T08:12:52.140Z,28.45
2023-04-01T08:13:52.207Z,28.48
2023-04-01T08:14:52.203Z,28.48
2023-04-01T08:15:52.252Z,28.46
2023-04-01T08:16:54.478Z,28.55
2023-04-01T08:17:52.351Z,28.55
2023-04-01T08:18:52.303Z,28.52
2023-04-01T08:19:52.289Z,28.60
2023-04-01T08:20:52.319Z,28.66
2023-04-01T08:21:52.355Z,28.69
2023-04-01T08:22:52.354Z,28.69
2023-04-01T08:23:52.389Z,28.64
2023-04-01T08:24:52.429Z,28.64
2023-04-01T08:25:52.449Z,28.67
2023-04-01T08:26:52.452Z,28.67
2023-04-01T08:27:52.509Z,28.69
2023-04-01T08:28:52.527Z,28.66
2023-04-01T08:29:52.551Z,28.73
2023-04-01T08:30:52.555Z,28.69
2023-04-01T08:31:52.729Z,28.73
2023-04-01T08:32:52.731Z,28.74
2023-04-01T08:33:52.680Z,28.79
2023-04-01T08:34:52.749Z,28.73
2023-04-01T08:35:52.805Z,28.71
2023-04-01T08:36:52.826Z,28.71
2023-04-01T08:37:52.886Z,28.73
2023-04-01T08:38:52.934Z,28.74
2023-04-01T08:39:52.931Z,28.76
2023-04-01T08:40:52.982Z,28.79
2023-04-01T08:41:53.019Z,28.86
2023-04-01T08:42:53.018Z,28.81
2023-04-01T08:43:53.062Z,28.86
2023-04-01T08:44:53.086Z,28.83
2023-04-01T08:45:53.135Z,28.81
2023-04-01T08:46:53.167Z,28.89
2023-04-01T08:47:53.219Z,28.87
2023-04-01T08:48:53.237Z,28.87
2023-04-01T08:49:53.274Z,28.93
2023-04-01T08:50:53.278Z,28.96
2023-04-01T08:51:53.352Z,28.96
2023-04-01T08:52:53.339Z,28.97
2023-04-01T08:53:53.390Z,29.06
2023-04-01T08:54:53.430Z,28.98
2023-04-01T08:55:53.459Z,29.01
2023-04-01T08:56:53.549Z,29.07
2023-04-01T08:57:55.432Z,29.08
2023-04-01T08:58:53.809Z,29.06
2023-04-01T08:59:53.872Z,29.13
2023-04-01T09:00:53.858Z,29.14
2023-04-01T09:01:53.955Z,29.14
2023-04-01T09:02:54.036Z,29.13
2023-04-01T09:03:54.046Z,29.17
2023-04-01T09:04:53.965Z,29.21
2023-04-01T09:05:53.970Z,29.17
2023-04-01T09:06:54.005Z,29.21
2023-04-01T09:07:54.036Z,29.24
2023-04-01T09:08:54.063Z,29.21
2023-04-01T09:09:54.272Z,29.25
2023-04-01T09:10:54.176Z,29.22
2023-04-01T09:11:54.244Z,29.17
2023-04-01T09:12:54.273Z,29.21
2023-04-01T09:13:54.283Z,29.27
2023-04-01T09:14:54.350Z,29.29
2023-04-01T09:15:54.410Z,29.25
2023-04-01T09:16:54.374Z,29.31
2023-04-01T09:17:54.474Z,29.24
2023-04-01T09:18:54.440Z,29.32
2023-04-01T09:19:54.505Z,29.29
2023-04-01T09:20:54.517Z,29.31
2023-04-01T09:21:54.544Z,29.32
2023-04-01T09:22:54.570Z,29.24
2023-04-01T09:23:54.608Z,29.25
2023-04-01T09:24:54.626Z,29.18
2023-04-01T09:25:54.677Z,29.16
2023-04-01T09:26:54.683Z,29.21
2023-04-01T09:27:54.717Z,29.17
2023-04-01T09:28:54.750Z,29.17
2023-04-01T09:29:54.778Z,29.21
2023-04-01T09:30:54.797Z,29.18
2023-04-01T09:31:54.868Z,29.20
2023-04-01T09:32:54.970Z,29.21
2023-04-01T09:33:54.898Z,29.21
2023-04-01T09:34:54.937Z,29.27
2023-04-01T09:35:54.999Z,29.22
2023-04-01T09:36:55.008Z,29.28
2023-04-01T09:37:54.974Z,29.29
2023-04-01T09:38:54.998Z,29.34
2023-04-01T09:39:55.070Z,29.21
2023-04-01T09:40:55.122Z,29.29
2023-04-01T09:41:55.107Z,29.27
2023-04-01T09:42:55.161Z,29.22
2023-04-01T09:43:55.180Z,29.24
2023-04-01T09:44:55.252Z,29.17
2023-04-01T09:45:55.307Z,29.27
2023-04-01T09:46:55.231Z,29.22
2023-04-01T09:47:55.280Z,29.24
2023-04-01T09:48:55.290Z,29.29
2023-04-01T09:49:55.316Z,29.35
2023-04-01T09:50:55.346Z,29.34
2023-04-01T09:51:55.381Z,29.28
2023-04-01T09:52:55.423Z,29.32
2023-04-01T09:53:55.416Z,29.34
2023-04-01T09:54:55.469Z,29.29
2023-04-01T09:55:55.493Z,29.34
2023-04-01T09:56:55.574Z,29.34
2023-04-01T09:57:55.572Z,29.27
2023-04-01T09:58:55.610Z,29.29
2023-04-01T09:59:55.651Z,29.28
2023-04-01T10:00:55.649Z,29.31
2023-04-01T10:01:55.751Z,29.32
2023-04-01T10:02:55.845Z,29.38
2023-04-01T10:03:55.750Z,29.45
2023-04-01T10:04:55.815Z,29.47
2023-04-01T10:05:55.863Z,29.51
2023-04-01T10:06:55.846Z,29.45
2023-04-01T10:07:55.875Z,29.45
2023-04-01T10:08:55.891Z,29.42
2023-04-01T10:09:55.933Z,29.39
2023-04-01T10:10:55.963Z,29.48
2023-04-01T10:11:55.998Z,29.38
2023-04-01T10:12:56.009Z,29.42
2023-04-01T10:13:56.028Z,29.34
2023-04-01T10:14:56.101Z,29.37
2023-04-01T10:15:56.126Z,29.41
2023-04-01T10:16:56.161Z,29.31
2023-04-01T10:17:56.193Z,29.32
2023-04-01T10:18:56.182Z,29.34
2023-04-01T10:19:56.235Z,29.32
2023-04-01T10:20:56.208Z,29.29
2023-04-01T10:21:56.219Z,29.32
2023-04-01T10:22:56.261Z,29.31
2023-04-01T10:23:56.308Z,29.31
2023-04-01T10:24:56.383Z,29.34
2023-04-01T10:25:56.388Z,29.32
2023-04-01T10:26:56.423Z,29.31
2023-04-01T10:27:56.478Z,29.32
2023-04-01T10:28:56.471Z,29.32
2023-04-01T10:29:56.542Z,29.29
2023-04-01T10:30:56.529Z,29.44
2023-04-01T10:31:56.611Z,29.34
2023-04-01T10:32:56.736Z,29.34
2023-04-01T10:33:56.683Z,29.35
2023-04-01T10:34:56.755Z,29.39
2023-04-01T10:35:56.814Z,29.31
2023-04-01T10:36:56.837Z,29.32
2023-04-01T10:37:56.863Z,29.32
2023-04-01T10:38:56.948Z,29.34
2023-04-01T10:39:56.996Z,29.34
2023-04-01T10:40:57.047Z,29.35
2023-04-01T10:41:57.085Z,29.24
2023-04-01T10:42:57.178Z,29.28
2023-04-01T10:43:57.201Z,29.34
2023-04-01T10:44:57.259Z,29.37
2023-04-01T10:45:57.376Z,29.32
2023-04-01T10:46:57.398Z,29.35
2023-04-01T10:47:57.458Z,29.22
2023-04-01T10:48:57.471Z,29.24
2023-04-01T10:49:57.507Z,29.38
2023-04-01T10:50:57.521Z,29.29
2023-04-01T10:51:57.522Z,29.35
2023-04-01T10:52:57.568Z,29.27
2023-04-01T10:53:57.606Z,29.27
2023-04-01T10:54:57.716Z,29.29
2023-04-01T10:55:57.680Z,29.24
2023-04-01T10:56:57.863Z,29.34
2023-04-01T10:57:57.804Z,29.34
2023-04-01T10:58:57.817Z,29.35
2023-04-01T10:59:57.845Z,29.32
2023-04-01T11:00:57.922Z,29.31
2023-04-01T11:02:08.305Z,29.35
2023-04-01T11:02:58.997Z,29.32
2023-04-01T11:03:58.024Z,29.34
2023-04-01T11:04:57.896Z,29.38
2023-04-01T11:05:57.897Z,29.44
2023-04-01T11:06:57.897Z,29.32
2023-04-01T11:08:06.107Z,29.35
2023-04-01T11:08:58.861Z,29.48
2023-04-01T11:09:57.856Z,29.44
2023-04-01T11:10:57.929Z,29.44
2023-04-01T11:11:57.862Z,29.37
2023-04-01T11:12:57.843Z,29.45
2023-04-01T11:13:57.939Z,29.45
2023-04-01T11:14:57.941Z,29.41
2023-04-01T11:15:57.834Z,29.45
2023-04-01T11:16:57.832Z,29.48
2023-04-01T11:17:57.817Z,29.49
2023-04-01T11:18:57.847Z,29.57
2023-04-01T11:19:57.790Z,29.62
2023-04-01T11:20:57.761Z,29.57
2023-04-01T11:21:57.787Z,29.52
2023-04-01T11:22:57.853Z,29.52
2023-04-01T11:24:57.904Z,29.54
2023-04-01T11:25:57.932Z,29.48
2023-04-01T11:26:57.944Z,29.51
2023-04-01T11:27:57.937Z,29.61
2023-04-01T11:28:57.854Z,29.57
2023-04-01T11:30:00.099Z,29.55
2023-04-01T11:30:57.857Z,29.57
2023-04-01T11:31:57.856Z,29.54
2023-04-01T11:32:57.891Z,29.58
2023-04-01T11:33:57.962Z,29.54
2023-04-01T11:34:57.828Z,29.54
2023-04-01T11:35:58.265Z,29.48
2023-04-01T11:36:57.864Z,29.45
2023-04-01T11:37:57.865Z,29.54
2023-04-01T11:38:57.780Z,29.52
2023-04-01T11:39:58.306Z,29.47
2023-04-01T11:40:57.763Z,29.49
2023-04-01T11:41:57.826Z,29.48
2023-04-01T11:42:57.744Z,29.42
2023-04-01T11:43:57.754Z,29.52
2023-04-01T11:44:57.736Z,29.44
2023-04-01T11:45:57.755Z,29.49
2023-04-01T11:46:57.718Z,29.49
2023-04-01T11:47:57.755Z,29.52
2023-04-01T11:48:57.715Z,29.55
2023-04-01T11:49:57.740Z,29.58
2023-04-01T11:50:57.781Z,29.54
2023-04-01T11:51:57.707Z,29.51
2023-04-01T11:52:57.693Z,29.61
2023-04-01T11:53:57.686Z,29.49
2023-04-01T11:54:57.686Z,29.49
2023-04-01T11:55:57.700Z,29.39
2023-04-01T11:56:57.708Z,29.51
2023-04-01T11:57:57.662Z,29.57
2023-04-01T11:58:57.637Z,29.48
2023-04-01T11:59:57.629Z,29.57
2023-04-01T12:00:57.646Z,29.55
2023-04-01T12:01:57.635Z,29.51
2023-04-01T12:02:57.639Z,29.47
2023-04-01T12:03:57.849Z,29.49
2023-04-01T12:04:57.645Z,29.45
2023-04-01T12:05:57.597Z,29.51
2023-04-01T12:06:57.581Z,29.49
2023-04-01T12:07:57.579Z,29.47
2023-04-01T12:08:57.586Z,29.39
2023-04-01T12:09:57.603Z,29.37
2023-04-01T12:10:57.605Z,29.37
2023-04-01T12:11:57.586Z,29.35
2023-04-01T12:13:01.293Z,29.35
2023-04-01T12:13:57.562Z,29.37
2023-04-01T12:14:57.550Z,29.39
2023-04-01T12:15:57.584Z,29.42
2023-04-01T12:16:57.555Z,29.39
2023-04-01T12:17:57.562Z,29.38
2023-04-01T12:18:57.553Z,29.38
2023-04-01T12:19:57.536Z,29.34
2023-04-01T12:20:57.482Z,29.32
2023-04-01T12:21:57.551Z,29.31
2023-04-01T12:22:57.505Z,29.31
2023-04-01T12:23:57.485Z,29.28
2023-04-01T12:24:57.545Z,29.28
2023-04-01T12:25:57.511Z,29.28
2023-04-01T12:26:57.439Z,29.32
2023-04-01T12:27:57.433Z,29.24
2023-04-01T12:28:57.435Z,29.28
2023-04-01T12:29:57.425Z,29.20
2023-04-01T12:30:57.409Z,29.22
2023-04-01T12:31:57.456Z,29.24
2023-04-01T12:32:57.437Z,29.20
2023-04-01T12:33:57.388Z,29.20
2023-04-01T12:34:57.406Z,29.22
2023-04-01T12:35:57.472Z,29.24
2023-04-01T12:36:57.383Z,29.22
2023-04-01T12:37:57.364Z,29.21
2023-04-01T12:38:57.364Z,29.24
2023-04-01T12:39:57.385Z,29.27
2023-04-01T12:40:57.425Z,29.21
2023-04-01T12:41:57.444Z,29.24
2023-04-01T12:42:57.514Z,29.16
2023-04-01T12:43:57.575Z,29.16
2023-04-01T12:44:57.562Z,29.17
2023-04-01T12:45:57.597Z,29.16
2023-04-01T12:46:57.632Z,29.20
2023-04-01T12:47:57.661Z,29.13
2023-04-01T12:48:57.688Z,29.13
2023-04-01T12:49:57.733Z,29.20
2023-04-01T12:50:57.798Z,29.14
2023-04-01T12:51:57.831Z,29.11
2023-04-01T12:52:57.934Z,29.10
2023-04-01T12:53:57.953Z,29.11